Beauregard Regional Airport
KDRI : now visible

Airfield :











YOU CAN JOIN US ON...

 
LOGIN :

Register | Disclaimer

   EN    FR    IT 

 









Legend :    VFR   Marginal VFR   IFR   Intensive IFR   Very Intensive IFR
Visi :
Ceiling :
>= 8 km
>= 3000ft
5 to 8 km
1000 to 3000 ft
1500m to 5 km
500 to 1000 ft
800 to 1500m
200 to 500 ft
< 800m
< 200 ft
Symbols :   Thunderstorms  Fog  Heavy snow  Heavy precipitations  Wind > 20 kt






- Airport Elevation : 202 ft


KDRI - Beauregard Regional

CURRENT METAR :
  • 100715Z AUTO 00000KT 10SM OVC005 18/18 A2996 RMK AO2 T01820175

EXPIRED METARs :
  • 100655Z AUTO 00000KT 10SM -RA OVC005 18/18 A2995 RMK AO2 LTG DSNT S P0007 T01830176
  • 100635Z AUTO 00000KT 5SM RA BKN005 BKN026 OVC100 19/18 A2995 RMK AO2 LTG DSNT SE AND S P0006 T01850177
  • 100615Z AUTO 00000KT 7SM RA SCT005 SCT030 OVC110 19/18 A2996 RMK AO2 LTG DSNT S AND SW P0002 T01860180
  • 100555Z AUTO 00000KT 5SM RA SCT070 OVC100 19/18 A2996 RMK AO2 LTG DSNT S P0003 60029 T01890181 10193 20186 403060186
  • 100535Z AUTO 00000KT 10SM RA BKN090 OVC120 19/18 A2996 RMK AO2 T01900182
  • 100515Z AUTO 00000KT 10SM SCT090 BKN120 19/18 A2993 RMK AO2 T01880180
  • 100455Z AUTO 00000KT 10SM -RA BKN120 19/18 A2993 RMK AO2 P0001 T01870180
  • 100435Z AUTO 00000KT 10SM RA SCT090 BKN110 19/18 A2993 RMK AO2 P0001 T01880181
  • 100415Z AUTO 00000KT 10SM DZ BKN090 OVC120 19/18 A2994 RMK AO2 T01880181

TAF N/A



MET'MAP, your aeronautical weather chart ! - Copyright ORBIFLY December 2007 - Disclaimer

ORBIFLY MET'MAP TEAM :

Programming & Development : Alexandra Zaïnal
Concept & original design : Baudouin d'Aumeries
Assistance for programming : Marc-Olivier Méhu
Technical & hardware support : Manuel Goepfert

Contact : metmap@orbifly.com




SOURCES & CREDITS :

   NOAA       Earth
Advisory